CheckWX is a tool to help pilots better visualize weather data.  It is not intended as a substitute for an official pre-flight weather briefing.

22:07:11 UTC

KHUL METAR
Houlton International Airport
Houlton, Maine, USA
Current

14 mins ago

KHUL 202153Z AUTO 24004KT 10SM CLR 31/17 A2962 RMK AO2 SLP029 T03110172
Observed
Jul-20 @ 21:53 UTC
Wind
  • 240° at 4 KTS
Visibility
10 SM
Flight Rules
VFR
Cloud Levels
  • Clear skies
Temperature
31°C / 88°F
Dewpoint
17°C / 63°F
Heat Index
32°C / 89°F
Humidity
43%
Altimeter
29.62" Hg
Pressure
1003.02 hPa
Previous

1 hour ago

KHUL 202053Z AUTO 26005KT 10SM CLR 32/16 A2962 RMK AO2 SLP029 T03220161 58015
Observed
Jul-20 @ 20:53 UTC
Wind
  • 260° at 5 KTS
Visibility
10 SM
Flight Rules
VFR
Cloud Levels
  • Clear skies
Temperature
32°C / 90°F
Dewpoint
16°C / 61°F
Humidity
38%
Altimeter
29.62" Hg
Pressure
1003.02 hPa
Previous

2 hours ago

KHUL 201953Z AUTO 25006KT 10SM CLR 32/16 A2965 RMK AO2 SLP036 T03220161
Observed
Jul-20 @ 19:53 UTC
Wind
  • 250° at 6 KTS
Visibility
10 SM
Flight Rules
VFR
Cloud Levels
  • Clear skies
Temperature
32°C / 90°F
Dewpoint
16°C / 61°F
Humidity
38%
Altimeter
29.65" Hg
Pressure
1004.02 hPa